You are not logged in, Click here to log in
ICAO: PGUM Country: 美國屬地關島首府阿加尼亞東方
Latitude: 13.4831 Longitude: 144.796
Total Arrivals: 15 Total Departures: 9
Latest Arrival: CI26 (RCTP-PGUM)Jason. Li Latest Departure: ZV1025 (PGUM-RCTP)Jason. Li
Scenery:
METAR : PGUM 231954Z 01009KT 6SM BR SCT019 BKN026 OVC100 26/24 A2981 RMK AO2 RAB01E11 SLP087 P0000 T02560244

安東尼奧·汪帕特國際機場GUM